.
WxDataArchive / Data Records for 2014-06-28
2014-06-27 June 2014 2014-06-29

Data Records for Saturday, 28 June 2014

Time	Temp	Chill	HIndex	Humid	Dewpt	 Wind 	HiWind	WindDir	Rain 	Barom
-----	----	-----	------	-----	-----	------	------	-------	-----	-----
00:00	73.2	73.2	73.2	76	65.2	1	2	68	0.00	30.023 
00:05	73.0	73.0	73.0	76	65.0	0	3	68	0.00	30.023 
00:10	72.8	72.8	72.8	77	65.2	0	1	68	0.00	30.023 
00:15	72.7	72.7	72.7	78	65.4	0	1	68	0.00	30.023 
00:20	72.5	72.5	72.5	79	65.6	0	2	68	0.00	30.023 
00:25	72.3	72.3	72.3	80	65.8	1	4	68	0.00	30.023 
00:30	72.1	72.1	72.1	80	65.6	0	4	68	0.00	30.025 
00:35	72.0	72.0	72.0	81	65.8	0	2	68	0.00	30.025 
00:40	72.0	72.0	72.0	81	65.8	0	2	68	0.00	30.025 
00:45	71.8	71.8	71.8	82	66.0	0	2	68	0.00	30.031 
00:50	71.6	71.6	71.6	83	66.2	1	2	68	0.00	30.031 
00:55	71.6	71.6	71.6	83	66.2	0	2	68	0.00	30.031 
01:00	71.5	71.5	71.5	84	66.4	0	2	68	0.00	30.029 
01:05	71.3	71.3	71.3	84	66.2	1	2	68	0.00	30.029 
01:10	71.3	71.3	71.3	84	66.2	0	2	68	0.00	30.029 
01:15	71.3	71.3	71.3	85	66.5	0	3	68	0.00	30.027 
01:20	71.3	71.3	71.3	85	66.5	0	3	68	0.00	30.027 
01:25	71.1	71.1	71.1	85	66.4	0	3	68	0.00	30.027 
01:30	71.1	71.1	71.1	86	66.7	0	3	68	0.00	30.025 
01:35	71.1	71.1	71.1	86	66.7	0	2	68	0.00	30.025 
01:40	71.1	71.1	71.1	86	66.7	0	3	68	0.00	30.025 
01:45	71.1	71.1	71.1	86	66.7	0	1	68	0.00	30.025 
01:50	70.9	70.9	70.9	86	66.5	0	1	68	0.00	30.025 
01:55	70.9	70.9	70.9	86	66.5	0	3	68	0.00	30.025 
02:00	70.8	70.8	70.8	87	66.7	0	2	68	0.00	30.027 
02:05	70.8	70.8	70.8	87	66.7	0	1	68	0.00	30.027 
02:10	70.6	70.6	70.6	87	66.5	0	1	68	0.00	30.027 
02:15	70.4	70.4	70.4	88	66.7	0	2	68	0.00	30.031 
02:20	70.4	70.4	70.4	88	66.7	0	2	68	0.00	30.031 
02:25	70.3	70.3	70.3	88	66.6	0	0	---	0.00	30.031 
02:30	70.1	70.1	70.1	88	66.4	0	0	---	0.00	30.032 
02:35	69.9	69.9	69.9	88	66.2	0	0	---	0.00	30.032 
02:40	69.8	69.8	69.8	89	66.4	0	0	---	0.00	30.032 
02:45	69.8	69.8	69.8	89	66.4	0	0	---	0.00	30.024 
02:50	69.6	69.6	69.6	89	66.2	0	0	---	0.00	30.024 
02:55	69.6	69.6	69.6	89	66.2	0	0	---	0.00	30.024 
03:00	69.4	69.4	69.4	89	66.0	0	0	---	0.00	30.024 
03:05	69.4	69.4	69.4	90	66.3	0	1	68	0.00	30.024 
03:10	69.4	69.4	69.4	90	66.3	0	1	68	0.00	30.024 
03:15	69.4	69.4	69.4	90	66.3	0	1	68	0.00	30.022 
03:20	69.4	69.4	69.4	90	66.3	0	1	68	0.00	30.022 
03:25	69.4	69.4	69.4	91	66.7	0	1	68	0.00	30.022 
03:30	69.6	69.6	69.6	90	66.5	0	1	68	0.00	30.017 
03:35	69.6	69.6	69.6	90	66.5	0	2	68	0.00	30.017 
03:40	69.6	69.6	69.6	90	66.5	0	1	68	0.00	30.017 
03:45	69.6	69.6	69.6	90	66.5	0	1	68	0.00	30.010 
03:50	69.6	69.6	69.6	90	66.5	0	1	68	0.00	30.010 
03:55	69.6	69.6	69.6	90	66.5	0	0	---	0.00	30.010 
04:00	69.6	69.6	69.6	90	66.5	0	0	---	0.00	30.014 
04:05	69.6	69.6	69.6	90	66.5	0	0	---	0.00	30.014 
04:10	69.6	69.6	69.6	90	66.5	0	1	68	0.00	30.014 
04:15	69.6	69.6	69.6	90	66.5	0	0	---	0.00	30.013 
04:20	69.6	69.6	69.6	90	66.5	0	0	---	0.00	30.013 
04:25	69.4	69.4	69.4	90	66.3	0	0	---	0.00	30.013 
04:30	69.4	69.4	69.4	90	66.3	0	0	---	0.00	30.017 
04:35	69.4	69.4	69.4	90	66.3	0	0	---	0.00	30.017 
04:40	69.4	69.4	69.4	90	66.3	0	0	---	0.00	30.017 
04:45	69.4	69.4	69.4	90	66.3	0	0	---	0.00	30.017 
04:50	69.4	69.4	69.4	90	66.3	0	0	---	0.00	30.017 
04:55	69.4	69.4	69.4	90	66.3	0	0	---	0.00	30.017 
05:00	69.6	69.6	69.6	90	66.5	1	3	68	0.00	30.021 
05:05	69.6	69.6	69.6	90	66.5	0	2	68	0.00	30.021 
05:10	69.4	69.4	69.4	90	66.3	0	3	68	0.00	30.021 
05:15	69.4	69.4	69.4	90	66.3	0	3	68	0.00	30.026 
05:20	69.3	69.3	69.3	90	66.2	0	1	68	0.00	30.026 
05:25	69.3	69.3	69.3	90	66.2	0	0	---	0.00	30.026 
05:30	69.3	69.3	69.3	90	66.2	0	1	68	0.00	30.030 
05:35	69.1	69.1	69.1	90	66.0	0	1	68	0.00	30.030 
05:40	69.1	69.1	69.1	90	66.0	0	0	---	0.00	30.030 
05:45	69.1	69.1	69.1	90	66.0	0	0	---	0.00	30.030 
05:50	68.9	68.9	68.9	90	65.8	0	0	---	0.00	30.030 
05:55	68.9	68.9	68.9	90	65.8	0	0	---	0.00	30.030 
06:00	68.9	68.9	68.9	90	65.8	0	1	68	0.00	30.036 
06:05	68.9	68.9	68.9	90	65.8	0	1	68	0.00	30.036 
06:10	68.9	68.9	68.9	91	66.2	0	1	68	0.00	30.036 
06:15	68.9	68.9	68.9	91	66.2	0	2	68	0.00	30.038 
06:20	68.9	68.9	68.9	91	66.2	0	2	68	0.00	30.038 
06:25	68.8	68.8	68.8	91	66.1	0	0	---	0.00	30.038 
06:30	68.9	68.9	68.9	91	66.2	0	0	---	0.00	30.042 
06:35	68.9	68.9	68.9	91	66.2	0	1	68	0.00	30.042 
06:40	68.9	68.9	68.9	91	66.2	0	1	68	0.00	30.042 
06:45	68.9	68.9	68.9	91	66.2	0	1	68	0.00	30.042 
06:50	69.1	69.1	69.1	91	66.4	0	1	68	0.00	30.042 
06:55	69.1	69.1	69.1	91	66.4	0	0	---	0.00	30.042 
07:00	69.3	69.3	69.3	91	66.6	0	2	68	0.00	30.045 
07:05	69.3	69.3	69.3	90	66.2	0	1	68	0.00	30.045 
07:10	69.4	69.4	69.4	90	66.3	0	1	68	0.00	30.045 
07:15	69.4	69.4	69.4	90	66.3	0	1	68	0.00	30.051 
07:20	69.4	69.4	69.4	90	66.3	0	2	68	0.00	30.051 
07:25	69.6	69.6	69.6	90	66.5	0	2	68	0.00	30.051 
07:30	69.6	69.6	69.6	90	66.5	0	1	68	0.00	30.049 
07:35	69.6	69.6	69.6	90	66.5	0	1	68	0.00	30.049 
07:40	69.8	69.8	69.8	90	66.7	0	1	68	0.00	30.049 
07:45	69.8	69.8	69.8	90	66.7	0	1	68	0.00	30.051 
07:50	69.9	69.9	69.9	90	66.8	0	1	68	0.00	30.051 
07:55	69.9	69.9	69.9	89	66.5	0	2	68	0.00	30.051 
08:00	70.1	70.1	70.1	89	66.7	0	1	68	0.00	30.054 
08:05	70.3	70.3	70.3	89	66.9	0	0	---	0.00	30.054 
08:10	70.6	70.6	70.6	89	67.2	0	0	---	0.00	30.054 
08:15	71.1	71.1	71.1	89	67.7	0	1	68	0.00	30.055 
08:20	71.6	71.6	71.6	87	67.5	0	2	68	0.00	30.055 
08:25	71.8	71.8	71.8	86	67.4	0	1	68	0.00	30.055 
08:30	72.1	72.1	72.1	86	67.7	0	1	68	0.00	30.054 
08:35	72.3	72.3	72.3	86	67.9	0	1	68	0.00	30.054 
08:40	72.5	72.5	72.5	85	67.7	0	0	---	0.00	30.054 
08:45	72.8	72.8	72.8	84	67.7	0	1	68	0.00	30.056 
08:50	73.0	73.0	73.0	84	67.9	0	2	68	0.00	30.056 
08:55	73.3	73.3	73.3	83	67.8	0	1	68	0.00	30.056 
09:00	73.7	73.7	73.7	82	67.9	0	1	68	0.00	30.055 
09:05	73.9	73.9	73.9	81	67.7	0	1	68	0.00	30.055 
09:10	74.4	74.4	74.4	81	68.2	0	1	68	0.00	30.055 
09:15	75.1	75.1	75.7	80	68.5	0	1	68	0.00	30.060 
09:20	75.6	75.6	76.6	78	68.2	0	1	68	0.00	30.060 
09:25	76.0	76.0	77.2	77	68.3	0	1	68	0.00	30.060 
09:30	76.3	76.3	77.6	77	68.5	0	3	68	0.00	30.063 
09:35	76.7	76.7	78.2	76	68.5	0	1	68	0.00	30.063 
09:40	77.0	77.0	78.7	75	68.5	0	1	68	0.00	30.063 
09:45	77.4	77.4	79.3	76	69.2	0	1	68	0.00	30.067 
09:50	77.9	77.9	80.0	74	68.9	0	1	68	0.00	30.067 
09:55	78.1	78.1	80.2	72	68.3	0	3	68	0.00	30.067 
10:00	78.3	78.3	80.5	71	68.1	0	4	68	0.00	30.067 
10:05	78.5	78.5	80.8	71	68.3	0	1	68	0.00	30.067 
10:10	78.8	78.8	81.1	70	68.2	0	3	68	0.00	30.067 
10:15	79.0	79.0	81.4	70	68.4	0	2	68	0.00	30.070 
10:20	79.2	79.2	81.7	70	68.5	0	1	68	0.00	30.070 
10:25	79.4	79.4	82.1	71	69.2	0	1	68	0.00	30.070 
10:30	79.6	79.6	82.3	70	68.9	0	1	68	0.00	30.068 
10:35	79.6	79.6	82.2	69	68.5	0	2	68	0.00	30.068 
10:40	79.6	79.6	82.3	70	68.9	0	1	68	0.00	30.068 
10:45	79.6	79.6	82.3	70	68.9	0	1	68	0.00	30.067 
10:50	79.4	79.4	82.0	70	68.7	0	1	68	0.00	30.067 
10:55	79.4	79.4	82.1	71	69.2	0	2	68	0.00	30.067 
11:00	79.4	79.4	82.0	70	68.7	0	2	68	0.00	30.068 
11:05	79.6	79.6	82.6	73	70.2	0	1	68	0.00	30.068 
11:10	79.8	79.8	82.6	70	69.1	0	2	68	0.00	30.068 
11:15	80.3	80.3	83.7	72	70.4	0	2	68	0.00	30.070 
11:20	80.9	80.9	84.3	69	69.8	0	1	68	0.00	30.070 
11:25	81.2	81.2	84.6	68	69.6	0	3	68	0.00	30.070 
11:30	81.2	81.2	84.5	67	69.2	0	1	68	0.00	30.072 
11:35	80.9	80.9	84.5	70	70.2	0	1	68	0.00	30.072 
11:40	80.5	80.5	83.9	71	70.2	0	1	68	0.00	30.072 
11:45	80.3	80.3	83.6	71	70.0	0	1	68	0.00	30.074 
11:50	80.1	80.1	83.4	72	70.2	0	1	68	0.00	30.074 
11:55	80.1	80.1	83.5	73	70.6	0	1	68	0.00	30.074 
12:00	79.8	79.8	83.0	73	70.4	0	1	68	0.00	30.074 
12:05	79.6	79.6	82.5	72	69.8	0	1	68	0.00	30.074 
12:10	79.4	79.4	82.4	74	70.4	0	3	90	0.00	30.074 
12:15	79.0	79.0	81.7	74	70.0	0	2	90	0.00	30.080 
12:20	78.6	78.6	81.1	74	69.6	0	2	90	0.00	30.080 
12:25	78.3	78.3	80.7	76	70.1	0	1	90	0.00	30.080 
12:30	78.1	78.1	80.4	77	70.3	0	1	90	0.00	30.084 
12:35	77.7	77.7	79.7	78	70.3	0	1	90	0.00	30.084 
12:40	77.6	77.6	79.6	80	70.9	0	2	90	0.01	30.084 
12:45	77.0	77.0	78.5	82	71.1	0	1	90	0.08	30.087 
12:50	76.5	76.5	77.5	84	71.3	0	1	90	0.02	30.087 
12:55	76.0	76.0	76.5	86	71.5	0	1	90	0.02	30.087 
13:00	75.8	75.8	76.0	87	71.6	0	1	180	0.00	30.089 
13:05	75.6	75.6	75.5	88	71.8	0	2	135	0.00	30.089 
13:10	75.3	75.3	75.0	88	71.5	0	3	90	0.00	30.089 
13:15	75.1	75.1	74.6	88	71.3	0	3	90	0.00	30.089 
13:20	75.1	75.1	74.6	88	71.3	1	3	90	0.00	30.089 
13:25	74.7	74.7	74.7	87	70.6	1	5	90	0.00	30.089 
13:30	74.6	74.6	74.6	88	70.8	0	1	90	0.00	30.081 
13:35	74.6	74.6	74.6	88	70.8	0	1	90	0.00	30.081 
13:40	74.6	74.6	74.6	88	70.8	0	1	90	0.00	30.081 
13:45	74.6	74.6	74.6	88	70.8	0	2	135	0.00	30.078 
13:50	74.6	74.6	74.6	88	70.8	0	1	135	0.00	30.078 
13:55	74.7	74.7	74.7	88	70.9	0	1	248	0.00	30.078 
14:00	74.9	74.9	74.9	88	71.1	0	0	---	0.00	30.076 
14:05	74.9	74.9	74.9	88	71.1	0	0	---	0.00	30.076 
14:10	75.1	75.1	74.6	88	71.3	0	0	---	0.00	30.076 
14:15	75.1	75.1	74.6	88	71.3	0	0	---	0.01	30.081 
14:20	74.9	74.9	74.9	89	71.4	0	0	---	0.03	30.081 
14:25	74.7	74.7	74.7	89	71.2	0	1	248	0.03	30.081 
14:30	74.7	74.7	74.7	90	71.6	0	0	---	0.03	30.082 
14:35	74.6	74.6	74.6	91	71.8	0	2	248	0.02	30.082 
14:40	74.6	74.6	74.6	91	71.8	0	1	248	0.01	30.082 
14:45	74.6	74.6	74.6	91	71.8	0	0	---	0.02	30.080 
14:50	74.4	74.4	74.4	91	71.6	0	1	248	0.04	30.080 
14:55	74.2	74.2	74.2	92	71.7	0	0	---	0.02	30.080 
15:00	74.2	74.2	74.2	92	71.7	0	1	248	0.01	30.070 
15:05	74.7	74.7	74.7	92	72.2	0	0	---	0.00	30.070 
15:10	75.3	75.3	74.2	93	73.1	0	1	248	0.00	30.070 
15:15	76.0	76.0	75.7	93	73.8	0	1	248	0.00	30.058 
15:20	76.3	76.3	76.4	93	74.1	0	0	---	0.00	30.058 
15:25	76.1	76.1	76.0	92	73.6	0	2	248	0.00	30.058 
15:30	76.0	76.0	75.9	91	73.2	0	1	248	0.00	30.057 
15:35	76.0	76.0	75.9	91	73.2	0	0	---	0.00	30.057 
15:40	76.1	76.1	76.1	91	73.3	0	1	248	0.00	30.057 
15:45	76.3	76.3	76.7	90	73.1	0	2	248	0.00	30.054 
15:50	76.3	76.3	76.7	90	73.1	0	0	---	0.00	30.054 
15:55	76.7	76.7	77.6	89	73.2	0	0	---	0.00	30.054 
16:00	77.2	77.2	78.7	89	73.7	0	1	248	0.00	30.053 
16:05	77.4	77.4	79.1	88	73.6	0	1	248	0.00	30.053 
16:10	77.6	77.6	79.6	87	73.4	0	0	---	0.00	30.053 
16:15	77.9	77.9	80.2	85	73.0	0	1	248	0.00	30.043 
16:20	78.1	78.1	80.6	84	72.9	0	1	248	0.00	30.043 
16:25	78.6	78.6	81.6	84	73.3	0	3	248	0.00	30.043 
16:30	79.4	79.4	83.3	83	73.8	0	1	112	0.00	30.041 
16:35	79.4	79.4	83.1	81	73.0	0	1	112	0.00	30.041 
16:40	79.4	79.4	83.0	80	72.7	0	2	112	0.00	30.041 
16:45	79.9	79.9	84.1	81	73.5	0	2	112	0.00	30.035 
16:50	79.9	79.9	83.9	79	72.8	0	1	112	0.00	30.035 
16:55	79.6	79.6	83.4	80	72.9	0	2	112	0.01	30.035 
17:00	79.0	79.0	82.3	81	72.7	0	1	112	0.07	30.037 
17:05	78.3	78.3	81.0	84	73.1	0	1	112	0.03	30.037 
17:10	77.7	77.7	79.8	85	72.8	0	0	---	0.00	30.037 
17:15	77.6	77.6	79.6	86	73.1	0	0	---	0.00	30.029 
17:20	77.9	77.9	80.2	88	74.0	0	0	---	0.00	30.029 
17:25	78.8	78.8	82.4	89	75.3	0	1	112	0.00	30.029 
17:30	79.2	79.2	83.2	87	75.0	0	1	112	0.00	30.025 
17:35	79.2	79.2	82.9	84	73.9	0	2	202	0.00	30.025 
17:40	79.4	79.4	83.3	83	73.8	0	1	202	0.00	30.025 
17:45	79.8	79.8	83.9	81	73.4	0	1	135	0.00	30.023 
17:50	79.8	79.8	83.4	77	71.9	0	3	135	0.00	30.023 
17:55	79.8	79.8	83.4	77	71.9	0	2	112	0.00	30.023 
18:00	79.8	79.8	83.1	74	70.8	1	4	90	0.00	30.024 
18:05	79.9	79.9	83.4	75	71.2	0	2	90	0.00	30.024 
18:10	79.9	79.9	83.3	74	70.8	0	2	90	0.00	30.024 
18:15	80.1	80.1	83.8	75	71.4	0	3	90	0.00	30.014 
18:20	80.3	80.3	84.0	74	71.2	0	2	90	0.00	30.014 
18:25	80.5	80.5	84.4	74	71.4	0	2	90	0.00	30.014 
18:30	80.7	80.7	84.4	72	70.8	1	3	90	0.00	30.012 
18:35	80.7	80.7	84.3	71	70.4	0	3	135	0.00	30.012 
18:40	80.7	80.7	84.4	72	70.8	0	1	112	0.00	30.012 
18:45	80.5	80.5	84.1	72	70.6	0	2	112	0.00	30.013 
18:50	80.1	80.1	83.4	72	70.2	0	3	90	0.00	30.013 
18:55	79.9	79.9	83.1	73	70.4	0	2	90	0.00	30.013 
19:00	79.8	79.8	83.1	74	70.8	0	1	90	0.00	30.010 
19:05	79.8	79.8	83.0	73	70.4	0	1	90	0.00	30.010 
19:10	79.6	79.6	82.6	73	70.2	0	2	90	0.00	30.010 
19:15	79.8	79.8	83.1	74	70.8	0	1	90	0.00	30.006 
19:20	79.9	79.9	83.1	73	70.4	0	1	90	0.00	30.006 
19:25	80.1	80.1	83.5	73	70.6	0	1	90	0.00	30.006 
19:30	80.5	80.5	84.1	72	70.6	0	1	90	0.00	30.004 
19:35	80.7	80.7	84.3	71	70.4	0	5	135	0.00	30.004 
19:40	80.7	80.7	84.1	70	70.0	0	3	135	0.00	30.004 
19:45	80.7	80.7	84.1	70	70.0	0	2	135	0.00	30.003 
19:50	80.7	80.7	84.1	70	70.0	1	5	68	0.00	30.003 
19:55	80.7	80.7	84.3	71	70.4	0	2	68	0.00	30.003 
20:00	80.3	80.3	83.3	69	69.2	0	2	112	0.00	29.997 
20:05	80.1	80.1	82.7	67	68.1	1	3	112	0.00	29.997 
20:10	79.9	79.9	82.5	67	67.9	1	3	90	0.00	29.997 
20:15	79.6	79.6	82.1	68	68.1	1	4	90	0.00	29.990 
20:20	79.4	79.4	81.9	69	68.3	1	4	68	0.00	29.990 
20:25	79.4	79.4	81.9	69	68.3	0	4	135	0.00	29.990 
20:30	79.2	79.2	81.7	70	68.5	0	2	135	0.00	29.990 
20:35	79.0	79.0	81.4	70	68.4	0	1	135	0.00	29.990 
20:40	78.8	78.8	81.2	71	68.6	0	1	135	0.00	29.990 
20:45	78.6	78.6	81.0	72	68.8	0	1	135	0.00	29.991 
20:50	78.5	78.5	80.8	72	68.7	0	1	135	0.00	29.991 
20:55	78.3	78.3	80.6	73	68.9	0	1	135	0.00	29.991 
21:00	78.1	78.1	80.3	73	68.7	0	1	135	0.00	29.993 
21:05	77.9	77.9	80.0	74	68.9	0	1	135	0.00	29.993 
21:10	77.7	77.7	79.7	74	68.7	0	0	---	0.00	29.993 
21:15	77.6	77.6	79.6	75	69.0	0	0	---	0.00	30.001 
21:20	77.2	77.2	79.0	76	69.0	0	0	---	0.00	30.001 
21:25	77.0	77.0	78.7	77	69.2	0	0	---	0.00	30.001 
21:30	76.7	76.7	78.2	77	68.9	0	0	---	0.00	30.005 
21:35	76.5	76.5	77.8	79	69.5	0	0	---	0.00	30.005 
21:40	76.3	76.3	77.5	80	69.7	0	0	---	0.00	30.005 
21:45	76.1	76.1	77.1	80	69.5	0	0	---	0.00	30.005 
21:50	76.0	76.0	76.9	81	69.7	0	0	---	0.00	30.005 
21:55	76.0	76.0	76.9	81	69.7	0	0	---	0.00	30.005 
22:00	76.0	76.0	76.9	81	69.7	0	0	---	0.00	30.001 
22:05	76.0	76.0	76.9	81	69.7	0	0	---	0.00	30.001 
22:10	76.0	76.0	76.8	82	70.1	0	0	---	0.00	30.001 
22:15	75.8	75.8	76.5	82	69.9	0	0	---	0.00	29.993 
22:20	75.8	75.8	76.5	82	69.9	0	0	---	0.00	29.993 
22:25	75.6	75.6	76.2	82	69.7	0	1	135	0.00	29.993 
22:30	75.6	75.6	76.1	83	70.1	0	1	135	0.00	30.004 
22:35	75.6	75.6	76.1	83	70.1	0	1	135	0.00	30.004 
22:40	75.6	75.6	76.1	83	70.1	0	1	135	0.00	30.004 
22:45	75.6	75.6	76.0	84	70.4	0	2	135	0.00	30.000 
22:50	75.6	75.6	76.0	84	70.4	0	1	135	0.00	30.000 
22:55	75.4	75.4	75.7	84	70.2	0	1	135	0.00	30.000 
23:00	75.4	75.4	75.7	84	70.2	0	1	135	0.00	30.001 
23:05	75.4	75.4	75.7	84	70.2	0	1	135	0.00	30.001 
23:10	75.4	75.4	75.7	84	70.2	0	2	135	0.00	30.001 
23:15	75.4	75.4	75.7	84	70.2	0	1	135	0.00	29.995 
23:20	75.4	75.4	75.7	84	70.2	0	1	135	0.00	29.995 
23:25	75.4	75.4	75.7	84	70.2	0	1	135	0.00	29.995 
23:30	75.3	75.3	75.5	84	70.1	0	1	135	0.00	30.001 
23:35	75.3	75.3	75.6	83	69.8	0	0	---	0.00	30.001 
23:40	75.1	75.1	75.3	83	69.6	0	2	135	0.00	30.001 
23:45	75.1	75.1	75.3	83	69.6	0	1	135	0.00	30.002 
23:50	75.1	75.1	75.5	82	69.2	0	1	135	0.00	30.002 
23:55	75.1	75.1	75.5	82	69.2	0	1	135	0.00	30.002 

CoCoRaHS
IN-AL-39
A2 Web Hosting
Creative Commons License
GoDaddy
search engine by freefind advanced

loaded 2018-11-17 00:14:07 • last modified 2010-11-18 10:43:29
Privacy PolicyDisclaimer
• wx.awcolley.com is powered by PmWiki v.2002016 •
• all content (unless otherwise noted) © 2018 A W Colley